Time;durP1;ratioP1;P1;durP2;ratioP2;P2;SDS_P1;SDS_P2;PMS_P1;PMS_P2;Temp;Humidity;BMP_temperature;BMP_pressure;BME280_temperature;BME280_humidity;BME280_pressure;Samples;Min_cycle;Max_cycle;Signal;HPM_P1;HPM_P2
2023/07/19 00:00:42;;;;;;;10.73;5.73;;;19.20;99.90;;;;;;5031958;28;20246;-64
2023/07/19 00:03:08;;;;;;;9.80;5.80;;;19.20;99.90;;;;;;5031814;28;20234;-65
2023/07/19 00:05:34;;;;;;;9.10;5.20;;;19.10;99.90;;;;;;5031589;28;20216;-64
2023/07/19 00:08:01;;;;;;;12.97;5.77;;;19.10;99.90;;;;;;5031854;28;20247;-64
2023/07/19 00:10:27;;;;;;;7.37;5.77;;;19.10;99.90;;;;;;5029988;28;20219;-64
2023/07/19 00:12:53;;;;;;;8.90;5.30;;;19.20;99.90;;;;;;5031633;28;20425;-64
2023/07/19 00:15:18;;;;;;;8.30;5.17;;;19.20;99.90;;;;;;5031692;28;20199;-64
2023/07/19 00:17:44;;;;;;;8.77;5.67;;;19.20;99.90;;;;;;5031626;28;20264;-65
2023/07/19 00:20:14;;;;;;;8.60;5.30;;;19.10;99.90;;;;;;5031466;28;20741;-64
2023/07/19 00:22:41;;;;;;;9.10;5.30;;;19.10;99.90;;;;;;5031552;28;20271;-64
2023/07/19 00:25:07;;;;;;;10.73;5.77;;;19.00;99.90;;;;;;5031521;28;20466;-64
2023/07/19 00:27:32;;;;;;;8.33;4.80;;;19.00;99.90;;;;;;5031693;28;20431;-64
2023/07/19 00:29:58;;;;;;;10.40;5.10;;;19.00;99.90;;;;;;5031899;28;20534;-64
2023/07/19 00:32:24;;;;;;;8.80;4.70;;;19.00;99.90;;;;;;5031928;28;20597;-64
2023/07/19 00:34:49;;;;;;;8.30;5.17;;;19.00;99.90;;;;;;5032109;28;20199;-64
2023/07/19 00:37:15;;;;;;;8.40;5.00;;;19.00;99.90;;;;;;5032052;28;20238;-64
2023/07/19 00:39:41;;;;;;;7.73;5.17;;;19.00;99.90;;;;;;5031896;28;20224;-64
2023/07/19 00:42:07;;;;;;;7.87;5.30;;;19.00;99.90;;;;;;5030529;28;20279;-64
2023/07/19 00:44:33;;;;;;;7.13;5.13;;;19.00;99.90;;;;;;5032124;28;20556;-64
2023/07/19 00:47:01;;;;;;;11.20;6.13;;;18.90;99.90;;;;;;5031859;28;20546;-64
2023/07/19 00:49:27;;;;;;;7.93;5.33;;;18.80;99.90;;;;;;5031797;28;20235;-64
2023/07/19 00:51:53;;;;;;;13.27;5.60;;;18.70;99.90;;;;;;5031856;28;20976;-64
2023/07/19 00:54:21;;;;;;;6.40;4.73;;;18.70;99.90;;;;;;5031717;28;20434;-65
2023/07/19 00:56:47;;;;;;;11.67;5.30;;;18.60;99.90;;;;;;5031842;28;20684;-64
2023/07/19 00:59:14;;;;;;;10.63;5.33;;;18.60;99.90;;;;;;5031402;28;20459;-65
2023/07/19 01:01:43;;;;;;;8.77;5.60;;;18.60;99.90;;;;;;5031317;28;20439;-64
2023/07/19 01:04:09;;;;;;;9.37;5.67;;;18.60;99.90;;;;;;5030953;28;20512;-65
2023/07/19 01:06:35;;;;;;;10.63;5.67;;;18.60;99.90;;;;;;5030723;28;20423;-64
2023/07/19 01:09:01;;;;;;;9.10;4.83;;;18.60;99.90;;;;;;5030505;28;20782;-65
2023/07/19 01:11:26;;;;;;;7.83;5.00;;;18.60;99.90;;;;;;5030546;28;20196;-64
2023/07/19 01:13:56;;;;;;;9.40;5.57;;;18.50;99.90;;;;;;5030524;28;20215;-64
2023/07/19 01:16:22;;;;;;;6.03;5.20;;;18.50;99.90;;;;;;5030552;28;20246;-64
2023/07/19 01:18:49;;;;;;;11.30;6.43;;;18.40;99.90;;;;;;5030559;28;21214;-64
2023/07/19 01:21:15;;;;;;;9.53;5.60;;;18.40;99.90;;;;;;5030360;28;20453;-64
2023/07/19 01:23:40;;;;;;;10.67;5.10;;;18.30;99.90;;;;;;5030386;28;21222;-64
2023/07/19 01:26:06;;;;;;;13.70;5.10;;;18.30;99.90;;;;;;5030336;28;20188;-64
2023/07/19 01:28:32;;;;;;;8.43;5.77;;;18.30;99.90;;;;;;5030514;28;20227;-64
2023/07/19 01:31:04;;;;;;;10.80;5.20;;;18.40;99.90;;;;;;5030215;28;20203;-65
2023/07/19 01:33:30;;;;;;;11.80;5.77;;;18.30;99.90;;;;;;5030295;28;20419;-65
2023/07/19 01:35:55;;;;;;;5.80;5.13;;;18.30;99.90;;;;;;5030143;28;20983;-65
2023/07/19 01:38:21;;;;;;;10.37;5.83;;;18.40;99.90;;;;;;5030039;28;20435;-65
2023/07/19 01:40:47;;;;;;;6.60;4.87;;;18.50;99.90;;;;;;5029858;28;20369;-65
2023/07/19 01:43:13;;;;;;;10.20;5.33;;;18.60;99.90;;;;;;5030025;28;21222;-64
2023/07/19 01:45:39;;;;;;;10.83;5.50;;;18.60;99.90;;;;;;5029841;28;20216;-64
2023/07/19 01:48:05;;;;;;;11.67;5.33;;;18.60;99.90;;;;;;5029917;28;20188;-64
2023/07/19 01:50:30;;;;;;;7.00;5.53;;;18.60;99.90;;;;;;5030021;28;20457;-64
2023/07/19 01:52:56;;;;;;;11.60;5.77;;;18.60;99.90;;;;;;5030015;28;20180;-65
2023/07/19 01:55:21;;;;;;;8.93;4.87;;;18.40;99.90;;;;;;5029137;28;20660;-64
2023/07/19 01:57:48;;;;;;;9.97;5.53;;;18.30;99.90;;;;;;5029963;28;20240;-64
2023/07/19 02:00:14;;;;;;;8.73;5.53;;;18.40;99.90;;;;;;5029598;28;20594;-65
2023/07/19 02:02:40;;;;;;;6.27;5.23;;;18.40;99.90;;;;;;5029872;28;20464;-64
2023/07/19 02:05:06;;;;;;;12.57;5.80;;;18.50;99.90;;;;;;5029672;28;20466;-64
2023/07/19 02:07:31;;;;;;;8.77;5.83;;;18.40;99.90;;;;;;5029650;28;20427;-65
2023/07/19 02:09:57;;;;;;;9.10;6.03;;;18.40;99.90;;;;;;5029508;28;20446;-64
2023/07/19 02:12:23;;;;;;;8.77;5.53;;;18.40;99.90;;;;;;5029536;28;20191;-64
2023/07/19 02:14:48;;;;;;;6.70;5.17;;;18.40;99.90;;;;;;5029475;28;20216;-64
2023/07/19 02:17:14;;;;;;;6.70;5.30;;;18.40;99.90;;;;;;5029535;28;20235;-64
2023/07/19 02:19:40;;;;;;;7.37;5.70;;;18.50;99.90;;;;;;5029585;28;20288;-64
2023/07/19 02:22:05;;;;;;;10.33;5.47;;;18.50;99.90;;;;;;5028423;28;20194;-65
2023/07/19 02:24:31;;;;;;;9.77;6.10;;;18.50;99.90;;;;;;5029704;28;20246;-64
2023/07/19 02:26:56;;;;;;;9.17;5.53;;;18.40;99.90;;;;;;5029929;28;20180;-65
2023/07/19 02:29:22;;;;;;;8.17;6.17;;;18.50;99.90;;;;;;5029694;28;20694;-64
2023/07/19 02:31:51;;;;;;;9.10;5.47;;;18.50;99.90;;;;;;5030011;28;20207;-64
2023/07/19 02:34:18;;;;;;;10.13;6.80;;;18.50;99.90;;;;;;5029905;28;20652;-64
2023/07/19 02:36:45;;;;;;;10.37;6.33;;;18.50;99.90;;;;;;5029728;28;20509;-64
2023/07/19 02:39:10;;;;;;;7.33;6.07;;;18.50;99.90;;;;;;5029717;28;20471;-64
2023/07/19 02:41:36;;;;;;;10.60;6.30;;;18.60;99.90;;;;;;5029579;28;20560;-65
2023/07/19 02:44:01;;;;;;;10.00;6.73;;;18.60;99.90;;;;;;5028248;28;20366;-65
2023/07/19 02:46:28;;;;;;;9.13;5.87;;;18.70;99.90;;;;;;5029514;28;20196;-64
2023/07/19 02:48:54;;;;;;;8.80;5.67;;;18.70;99.90;;;;;;5028889;28;20669;-64
2023/07/19 02:51:19;;;;;;;6.70;5.53;;;18.70;99.90;;;;;;5029165;28;20429;-65
2023/07/19 02:53:45;;;;;;;11.10;6.30;;;18.70;99.90;;;;;;5028903;28;20759;-64
2023/07/19 02:56:10;;;;;;;14.27;6.87;;;18.70;99.90;;;;;;5028788;28;20189;-64
2023/07/19 02:58:36;;;;;;;10.50;5.83;;;18.70;99.90;;;;;;5028608;28;20641;-64
2023/07/19 03:01:01;;;;;;;9.63;5.93;;;18.70;99.90;;;;;;5028486;28;20262;-64
2023/07/19 03:03:29;;;;;;;11.27;6.90;;;18.60;99.90;;;;;;5028621;28;20558;-64
2023/07/19 03:05:55;;;;;;;11.03;7.10;;;18.60;99.90;;;;;;5028521;28;20191;-64
2023/07/19 03:08:20;;;;;;;12.57;6.27;;;18.50;99.90;;;;;;5027123;28;20408;-64
2023/07/19 03:10:51;;;;;;;12.13;5.70;;;18.60;99.90;;;;;;5028350;28;20306;-64
2023/07/19 03:13:16;;;;;;;9.63;5.70;;;18.60;99.90;;;;;;5028573;28;20170;-64
2023/07/19 03:15:45;;;;;;;11.40;7.10;;;18.60;99.90;;;;;;5028334;28;20974;-64
2023/07/19 03:18:11;;;;;;;9.03;5.90;;;18.60;99.90;;;;;;5028267;28;20186;-64
2023/07/19 03:20:37;;;;;;;10.70;6.57;;;18.70;99.90;;;;;;5028229;28;20505;-64
2023/07/19 03:23:02;;;;;;;13.60;6.60;;;18.70;99.90;;;;;;5026826;28;20216;-64
2023/07/19 03:25:28;;;;;;;13.73;6.90;;;18.60;99.90;;;;;;5028090;28;20224;-64
2023/07/19 03:27:55;;;;;;;9.40;5.93;;;18.70;99.90;;;;;;5028221;28;20227;-64
2023/07/19 03:30:21;;;;;;;11.50;6.80;;;18.70;99.90;;;;;;5028122;28;20435;-64
2023/07/19 03:32:47;;;;;;;13.80;6.50;;;18.70;99.90;;;;;;5028203;28;20423;-65
2023/07/19 03:35:12;;;;;;;9.00;5.97;;;18.70;99.90;;;;;;5026704;28;20419;-64
2023/07/19 03:37:38;;;;;;;10.50;5.27;;;18.70;99.90;;;;;;5028193;28;20477;-64
2023/07/19 03:40:04;;;;;;;10.37;6.27;;;18.60;99.90;;;;;;5026645;28;20262;-64
2023/07/19 03:42:31;;;;;;;16.20;6.90;;;18.60;99.90;;;;;;5028136;28;20185;-64
2023/07/19 03:44:57;;;;;;;9.13;5.80;;;18.70;99.90;;;;;;5028165;28;20572;-64
2023/07/19 03:47:24;;;;;;;10.93;6.00;;;18.60;99.90;;;;;;5028120;28;21135;-64
2023/07/19 03:49:49;;;;;;;17.47;6.13;;;18.70;99.90;;;;;;5028007;28;20224;-64
2023/07/19 03:52:15;;;;;;;9.03;5.83;;;18.70;99.90;;;;;;5028155;28;20427;-64
2023/07/19 03:54:40;;;;;;;7.40;5.83;;;18.70;99.90;;;;;;5026696;28;20192;-65
2023/07/19 03:57:06;;;;;;;7.70;5.73;;;18.80;99.90;;;;;;5028061;28;20214;-64
2023/07/19 03:59:32;;;;;;;9.87;5.90;;;18.70;99.90;;;;;;5028136;28;20210;-65
2023/07/19 04:01:57;;;;;;;11.07;6.30;;;18.60;99.90;;;;;;5028236;28;20192;-64
2023/07/19 04:04:23;;;;;;;8.70;5.67;;;18.70;99.90;;;;;;5027972;28;20221;-64
2023/07/19 04:06:48;;;;;;;11.53;6.10;;;18.60;99.90;;;;;;5026522;28;20185;-64
2023/07/19 04:09:14;;;;;;;10.23;6.13;;;18.60;99.90;;;;;;5028024;28;20963;-64
2023/07/19 04:11:39;;;;;;;10.50;6.70;;;18.50;99.90;;;;;;5027957;28;20191;-64
2023/07/19 04:14:05;;;;;;;8.10;5.83;;;18.50;99.90;;;;;;5027966;28;20249;-64
2023/07/19 04:16:31;;;;;;;13.73;5.77;;;18.50;99.90;;;;;;5027970;28;20189;-64
2023/07/19 04:18:56;;;;;;;11.53;5.77;;;18.50;99.90;;;;;;5030875;28;20740;-64
2023/07/19 04:21:22;;;;;;;8.00;5.43;;;18.50;99.90;;;;;;5031460;28;20232;-64
2023/07/19 04:23:48;;;;;;;9.93;6.13;;;18.50;99.90;;;;;;5031387;28;20191;-65
2023/07/19 04:26:14;;;;;;;9.50;6.00;;;18.50;99.90;;;;;;5031480;28;20430;-64
2023/07/19 04:28:39;;;;;;;9.97;6.20;;;18.70;99.90;;;;;;5031541;28;20193;-64
2023/07/19 04:31:05;;;;;;;8.60;5.93;;;18.70;99.90;;;;;;5031296;28;20643;-65
2023/07/19 04:33:31;;;;;;;10.43;5.70;;;18.60;99.90;;;;;;5031331;28;20188;-64
2023/07/19 04:35:57;;;;;;;9.93;6.13;;;18.60;99.90;;;;;;5030851;28;20322;-64
2023/07/19 04:38:23;;;;;;;16.43;6.47;;;18.60;99.90;;;;;;5031379;28;21282;-64
2023/07/19 04:40:49;;;;;;;12.10;6.03;;;18.70;99.90;;;;;;5031098;28;20211;-66
2023/07/19 04:43:14;;;;;;;8.50;5.80;;;18.70;99.90;;;;;;5030602;28;20643;-66
2023/07/19 04:45:43;;;;;;;11.83;5.37;;;18.80;99.90;;;;;;5030786;28;20223;-66
2023/07/19 04:48:09;;;;;;;9.30;5.37;;;18.80;99.90;;;;;;5029532;28;20657;-66
2023/07/19 04:50:34;;;;;;;6.53;4.97;;;18.90;99.90;;;;;;5030679;28;20455;-66
2023/07/19 04:53:00;;;;;;;8.00;5.37;;;19.10;99.90;;;;;;5029210;28;20665;-66
2023/07/19 04:55:26;;;;;;;11.97;5.50;;;19.30;99.90;;;;;;5030595;28;20199;-66
2023/07/19 04:57:51;;;;;;;9.07;4.90;;;19.50;99.90;;;;;;5028937;28;20963;-66
2023/07/19 05:00:17;;;;;;;11.00;5.10;;;19.60;99.90;;;;;;5030128;28;20221;-66
2023/07/19 05:02:43;;;;;;;4.97;4.30;;;19.80;99.90;;;;;;5028679;28;20187;-66
2023/07/19 05:05:09;;;;;;;8.80;4.70;;;19.90;99.90;;;;;;5029803;28;20281;-66
2023/07/19 05:07:36;;;;;;;10.67;5.27;;;20.10;99.90;;;;;;5029661;28;20184;-67
2023/07/19 05:10:03;;;;;;;9.07;4.90;;;20.30;99.90;;;;;;5029456;28;20451;-66
2023/07/19 05:12:30;;;;;;;6.13;5.13;;;20.40;99.90;;;;;;5027959;28;20420;-66
2023/07/19 05:14:56;;;;;;;5.07;4.03;;;20.50;99.90;;;;;;5029207;28;20427;-66
2023/07/19 05:17:21;;;;;;;6.03;4.30;;;20.60;99.90;;;;;;5029376;28;20419;-66
2023/07/19 05:19:47;;;;;;;5.40;4.87;;;20.70;99.90;;;;;;5029075;28;20454;-66
2023/07/19 05:22:13;;;;;;;8.87;4.90;;;20.80;99.90;;;;;;5029163;28;20660;-66
2023/07/19 05:24:38;;;;;;;6.40;4.23;;;20.90;99.90;;;;;;5028928;28;20239;-66
2023/07/19 05:27:04;;;;;;;8.57;4.60;;;20.90;99.90;;;;;;5029030;28;20181;-66
2023/07/19 05:29:30;;;;;;;8.50;5.07;;;21.00;99.90;;;;;;5027753;28;20212;-66
2023/07/19 05:31:56;;;;;;;6.03;4.17;;;21.10;99.90;;;;;;5028780;28;20438;-67
2023/07/19 05:34:24;;;;;;;6.70;4.10;;;21.10;99.90;;;;;;5028782;28;20686;-67
2023/07/19 05:36:50;;;;;;;6.00;4.67;;;21.20;99.90;;;;;;5029151;28;20243;-66
2023/07/19 05:39:15;;;;;;;8.27;5.17;;;21.20;99.90;;;;;;5028750;28;20475;-66
2023/07/19 05:41:41;;;;;;;4.87;3.97;;;21.30;99.90;;;;;;5028934;28;20299;-66
2023/07/19 05:44:07;;;;;;;13.80;5.30;;;21.40;99.90;;;;;;5028775;28;20679;-65
2023/07/19 05:46:38;;;;;;;8.17;4.70;;;21.50;99.90;;;;;;5028854;28;20209;-66
2023/07/19 05:49:04;;;;;;;6.30;4.30;;;21.60;99.90;;;;;;5028556;28;20453;-67
2023/07/19 05:51:29;;;;;;;7.03;4.40;;;21.80;99.90;;;;;;5028774;28;20470;-66
2023/07/19 05:53:55;;;;;;;7.13;4.07;;;21.90;99.90;;;;;;5029072;28;20545;-66
2023/07/19 05:56:21;;;;;;;6.73;4.10;;;21.90;99.90;;;;;;5028922;28;20246;-66
2023/07/19 05:58:47;;;;;;;8.10;4.83;;;22.10;99.90;;;;;;5028922;28;20192;-66
2023/07/19 06:01:17;;;;;;;5.17;4.20;;;22.10;99.90;;;;;;5029170;28;20427;-66
2023/07/19 06:03:43;;;;;;;10.07;4.93;;;22.20;99.90;;;;;;5028852;28;20213;-65
2023/07/19 06:06:09;;;;;;;6.93;4.10;;;22.20;99.90;;;;;;5029037;28;20433;-67
2023/07/19 06:08:34;;;;;;;7.73;4.63;;;22.10;99.90;;;;;;5028886;28;20428;-66
2023/07/19 06:11:00;;;;;;;5.20;4.33;;;22.20;99.90;;;;;;5028831;28;20207;-66
2023/07/19 06:13:25;;;;;;;10.47;4.87;;;22.20;99.90;;;;;;5028814;28;20196;-66
2023/07/19 06:15:51;;;;;;;6.83;3.63;;;22.20;99.90;;;;;;5028837;28;20231;-67
2023/07/19 06:18:17;;;;;;;9.30;4.03;;;22.30;99.90;;;;;;5028658;28;20191;-66
2023/07/19 06:20:43;;;;;;;8.67;4.87;;;22.50;99.90;;;;;;5028490;28;20605;-66
2023/07/19 06:23:08;;;;;;;9.10;4.77;;;22.60;99.90;;;;;;5028442;28;20427;-67
2023/07/19 06:25:34;;;;;;;8.40;4.83;;;22.70;99.90;;;;;;5028108;28;20254;-66
2023/07/19 06:27:59;;;;;;;5.30;4.37;;;22.90;99.90;;;;;;5028135;28;20194;-66
2023/07/19 06:30:25;;;;;;;8.63;4.77;;;23.00;99.90;;;;;;5027923;28;20732;-66
2023/07/19 06:32:50;;;;;;;5.40;3.60;;;23.10;99.90;;;;;;5027860;28;20182;-67
2023/07/19 06:35:16;;;;;;;7.60;5.27;;;23.10;99.90;;;;;;5027955;28;20221;-66
2023/07/19 06:37:43;;;;;;;7.73;4.60;;;23.10;99.90;;;;;;5028008;28;20199;-65
2023/07/19 06:40:09;;;;;;;6.60;4.73;;;23.20;99.90;;;;;;5028006;28;20214;-66
2023/07/19 06:42:36;;;;;;;11.83;5.33;;;23.20;99.90;;;;;;5027820;28;20467;-66
2023/07/19 06:45:02;;;;;;;10.20;5.13;;;23.30;99.90;;;;;;5027795;28;20462;-67
2023/07/19 06:47:28;;;;;;;6.70;5.23;;;23.40;99.90;;;;;;5026490;28;20468;-66
2023/07/19 06:49:54;;;;;;;7.50;3.97;;;23.40;99.90;;;;;;5027508;28;20523;-66
2023/07/19 06:52:20;;;;;;;9.87;5.13;;;23.50;99.90;;;;;;5027468;28;20422;-66
2023/07/19 06:54:46;;;;;;;9.10;5.07;;;23.40;99.90;;;;;;5027789;28;20484;-66
2023/07/19 06:57:11;;;;;;;12.97;5.50;;;23.60;99.90;;;;;;5028060;28;20207;-66
2023/07/19 06:59:37;;;;;;;7.10;4.30;;;23.60;99.90;;;;;;5027810;28;20210;-66
2023/07/19 07:02:02;;;;;;;10.60;4.77;;;23.70;99.90;;;;;;5027491;28;20627;-67
2023/07/19 07:04:28;;;;;;;5.00;4.43;;;23.70;99.90;;;;;;5027559;28;20217;-66
2023/07/19 07:06:54;;;;;;;5.40;4.27;;;23.70;99.90;;;;;;5027483;28;20214;-67
2023/07/19 07:09:19;;;;;;;7.53;4.40;;;23.80;99.90;;;;;;5027429;28;20259;-66
2023/07/19 07:11:45;;;;;;;8.20;4.80;;;23.90;99.90;;;;;;5027213;28;20192;-67
2023/07/19 07:14:10;;;;;;;8.87;4.43;;;23.90;99.90;;;;;;5026902;28;20200;-66
2023/07/19 07:16:36;;;;;;;7.90;4.87;;;24.00;99.90;;;;;;5026983;28;20272;-66
2023/07/19 07:19:02;;;;;;;8.13;4.87;;;24.00;99.90;;;;;;5026834;28;20298;-66
2023/07/19 07:21:27;;;;;;;7.70;4.20;;;24.00;99.90;;;;;;5026940;28;20673;-66
2023/07/19 07:23:53;;;;;;;7.27;4.20;;;24.00;99.90;;;;;;5026739;28;20418;-67
2023/07/19 07:26:19;;;;;;;6.47;4.30;;;24.00;99.90;;;;;;5026859;28;20195;-67
2023/07/19 07:28:45;;;;;;;5.47;3.77;;;24.10;99.90;;;;;;5026762;28;20230;-67
2023/07/19 07:31:11;;;;;;;5.53;4.37;;;24.00;99.90;;;;;;5026722;28;20435;-67
2023/07/19 07:33:38;;;;;;;6.30;4.40;;;24.00;99.90;;;;;;5026783;28;20182;-67
2023/07/19 07:36:03;;;;;;;6.43;4.50;;;24.00;99.90;;;;;;5026616;28;20429;-67
2023/07/19 07:38:29;;;;;;;13.03;4.27;;;24.10;99.90;;;;;;5026678;28;20442;-67
2023/07/19 07:40:59;;;;;;;5.70;4.03;;;24.10;99.90;;;;;;5026545;28;20206;-67
2023/07/19 07:43:25;;;;;;;6.20;3.70;;;24.10;99.90;;;;;;5027080;28;20195;-67
2023/07/19 07:45:54;;;;;;;7.97;3.77;;;24.10;99.90;;;;;;5026595;28;20477;-67
2023/07/19 07:48:23;;;;;;;8.27;4.40;;;24.10;99.90;;;;;;5026898;28;20210;-67
2023/07/19 07:50:51;;;;;;;6.47;4.20;;;24.10;99.90;;;;;;5026285;28;20919;-67
2023/07/19 07:53:20;;;;;;;7.70;3.60;;;24.10;98.40;;;;;;5028642;28;20523;-66
2023/07/19 07:55:46;;;;;;;11.80;4.33;;;24.20;99.90;;;;;;5028579;28;20441;-67
2023/07/19 07:58:12;;;;;;;7.03;4.07;;;24.30;99.90;;;;;;5030378;28;20435;-67
2023/07/19 08:00:38;;;;;;;5.43;3.57;;;24.30;99.90;;;;;;5030388;28;20446;-67
2023/07/19 08:03:04;;;;;;;8.67;4.00;;;24.40;99.90;;;;;;5030204;28;20422;-67
2023/07/19 08:05:32;;;;;;;6.63;3.63;;;24.50;99.90;;;;;;5030279;28;20239;-67
2023/07/19 08:07:57;;;;;;;11.17;4.60;;;24.70;99.60;;;;;;5030000;28;20187;-67
2023/07/19 08:10:23;;;;;;;10.00;4.23;;;24.70;99.70;;;;;;5030081;28;21186;-66
2023/07/19 08:12:48;;;;;;;4.87;3.50;;;24.80;99.90;;;;;;5030178;28;20671;-67
2023/07/19 08:15:14;;;;;;;6.27;3.47;;;24.90;97.80;;;;;;5030102;28;20279;-67
2023/07/19 08:17:39;;;;;;;6.40;4.00;;;24.90;98.50;;;;;;5029908;28;20185;-68
2023/07/19 08:20:09;;;;;;;4.70;3.80;;;24.90;97.90;;;;;;5028275;28;20211;-68
2023/07/19 08:22:35;;;;;;;14.07;4.33;;;24.80;97.90;;;;;;5030075;28;20611;-68
2023/07/19 08:25:01;;;;;;;5.67;3.23;;;24.90;98.90;;;;;;5029807;28;20906;-67
2023/07/19 08:27:27;;;;;;;12.40;3.80;;;25.10;98.30;;;;;;5030203;28;20450;-67
2023/07/19 08:29:52;;;;;;;5.10;3.83;;;25.10;98.00;;;;;;5029720;28;20842;-67
2023/07/19 08:32:18;;;;;;;9.67;3.67;;;25.10;97.20;;;;;;5029850;28;20263;-68
2023/07/19 08:34:45;;;;;;;12.80;4.80;;;25.20;98.20;;;;;;5029703;28;20185;-67
2023/07/19 08:37:11;;;;;;;13.00;4.10;;;25.30;97.50;;;;;;5029879;28;20517;-67
2023/07/19 08:39:37;;;;;;;6.10;3.27;;;25.40;97.50;;;;;;5030295;28;21131;-67
2023/07/19 08:42:03;;;;;;;6.83;3.70;;;25.50;96.70;;;;;;5029829;28;20431;-65
2023/07/19 08:44:29;;;;;;;9.20;3.60;;;25.50;95.80;;;;;;5030409;28;20915;-66
2023/07/19 08:46:55;;;;;;;8.10;2.87;;;25.70;95.10;;;;;;5030425;28;20411;-67
2023/07/19 08:49:21;;;;;;;4.90;3.40;;;25.80;94.50;;;;;;5030009;28;20529;-67
2023/07/19 08:51:47;;;;;;;4.17;2.97;;;25.80;94.80;;;;;;5030133;28;20188;-67
2023/07/19 08:54:13;;;;;;;14.53;3.50;;;25.90;94.80;;;;;;5030096;28;20420;-68
2023/07/19 08:56:40;;;;;;;12.17;3.20;;;25.90;93.40;;;;;;5029766;28;20943;-67
2023/07/19 08:59:06;;;;;;;5.03;2.93;;;26.10;94.50;;;;;;5029458;28;20808;-67
2023/07/19 09:01:33;;;;;;;40.40;5.73;;;26.30;91.80;;;;;;5029434;28;20857;-66
2023/07/19 09:03:58;;;;;;;12.93;4.03;;;26.40;91.60;;;;;;5029040;28;20423;-67
2023/07/19 09:06:27;;;;;;;12.00;2.93;;;26.50;92.00;;;;;;5029158;28;20423;-67
2023/07/19 09:08:55;;;;;;;9.33;2.67;;;26.60;92.10;;;;;;5029072;28;20463;-67
2023/07/19 09:11:22;;;;;;;6.00;3.63;;;26.80;91.10;;;;;;5029147;28;20936;-67
2023/07/19 09:13:55;;;;;;;6.13;3.13;;;27.00;91.50;;;;;;5029125;28;20420;-67
2023/07/19 09:16:29;;;;;;;13.67;3.23;;;26.70;90.10;;;;;;5028949;28;20418;-67
2023/07/19 09:18:58;;;;;;;4.80;2.57;;;26.60;90.70;;;;;;5028844;28;21035;-67
2023/07/19 09:21:36;;;;;;;10.63;2.93;;;26.40;90.00;;;;;;5028743;28;20431;-67
2023/07/19 09:24:05;;;;;;;4.63;2.50;;;26.30;90.00;;;;;;5028841;28;20415;-67
2023/07/19 09:26:57;;;;;;;19.73;3.80;;;26.20;90.10;;;;;;5028612;28;20469;-67
2023/07/19 09:29:27;;;;;;;10.13;3.00;;;26.00;90.00;;;;;;5028747;28;20435;-67
2023/07/19 09:31:54;;;;;;;4.03;1.97;;;26.00;89.20;;;;;;5028669;28;20435;-66
2023/07/19 09:34:21;;;;;;;11.80;2.30;;;26.10;88.80;;;;;;5029032;28;20435;-67
2023/07/19 09:36:48;;;;;;;8.20;2.40;;;26.10;87.00;;;;;;5028632;28;20458;-65
2023/07/19 09:39:15;;;;;;;3.77;1.57;;;26.20;85.10;;;;;;5028341;28;20446;-65
2023/07/19 09:41:41;;;;;;;9.07;2.00;;;26.40;85.40;;;;;;5028486;28;20419;-65
2023/07/19 09:44:09;;;;;;;6.17;2.10;;;26.70;85.80;;;;;;5028440;28;20888;-65
2023/07/19 09:46:36;;;;;;;8.93;2.70;;;26.80;86.20;;;;;;5028271;28;20510;-65
2023/07/19 09:49:02;;;;;;;9.30;2.47;;;26.80;82.10;;;;;;5028823;28;20895;-65
2023/07/19 09:51:29;;;;;;;5.77;2.03;;;27.40;83.90;;;;;;5029078;28;20809;-65
2023/07/19 09:53:57;;;;;;;10.10;2.00;;;28.30;83.50;;;;;;5029025;28;20179;-65
2023/07/19 09:56:23;;;;;;;6.73;2.00;;;28.70;79.20;;;;;;5028832;28;20523;-65
2023/07/19 09:58:49;;;;;;;6.43;2.23;;;28.90;76.80;;;;;;5028363;28;20534;-65
2023/07/19 10:01:15;;;;;;;4.90;2.30;;;29.00;75.20;;;;;;5028314;28;20199;-65
2023/07/19 10:03:43;;;;;;;3.20;1.83;;;28.80;78.50;;;;;;5028105;28;20510;-65
2023/07/19 10:06:09;;;;;;;14.43;2.10;;;28.40;77.50;;;;;;5028048;28;20222;-65
2023/07/19 10:08:34;;;;;;;5.00;1.60;;;27.90;79.00;;;;;;5027918;28;20427;-65
2023/07/19 10:11:00;;;;;;;6.43;1.93;;;27.60;78.40;;;;;;5028121;28;20209;-65
2023/07/19 10:13:51;;;;;;;4.83;1.47;;;27.50;81.50;;;;;;5027822;28;20256;-65
2023/07/19 10:16:35;;;;;;;8.60;2.37;;;27.40;80.20;;;;;;5027438;28;20495;-65
2023/07/19 10:19:20;;;;;;;4.73;2.07;;;27.30;80.50;;;;;;5027752;28;20842;-64
2023/07/19 10:22:07;;;;;;;7.37;1.90;;;27.60;78.60;;;;;;5027731;28;20422;-65
2023/07/19 10:24:35;;;;;;;5.50;2.20;;;27.80;80.70;;;;;;5027503;28;20557;-65
2023/07/19 10:27:06;;;;;;;8.53;2.33;;;28.10;83.80;;;;;;5027547;28;20419;-65
2023/07/19 10:29:42;;;;;;;7.63;2.63;;;28.20;78.70;;;;;;5027609;28;20435;-67
2023/07/19 10:32:08;;;;;;;8.63;2.63;;;28.10;83.00;;;;;;5027453;28;20411;-67
2023/07/19 10:34:35;;;;;;;4.60;2.37;;;28.40;81.20;;;;;;5027349;28;20423;-67
2023/07/19 10:37:05;;;;;;;7.20;2.53;;;29.20;83.10;;;;;;5027372;28;20256;-67
2023/07/19 10:39:32;;;;;;;6.60;2.10;;;29.90;77.80;;;;;;5027325;28;20439;-66
2023/07/19 10:41:59;;;;;;;5.60;2.57;;;30.30;76.40;;;;;;5027343;28;20441;-66
2023/07/19 10:44:27;;;;;;;13.53;2.97;;;30.20;76.90;;;;;;5027293;28;20465;-67
2023/07/19 10:46:58;;;;;;;5.20;2.30;;;30.20;77.00;;;;;;5027256;28;20923;-67
2023/07/19 10:49:24;;;;;;;20.50;4.60;;;30.50;77.60;;;;;;5026993;28;21015;-67
2023/07/19 10:51:57;;;;;;;11.80;3.20;;;30.50;74.80;;;;;;5027239;28;20441;-66
2023/07/19 10:54:23;;;;;;;9.53;3.23;;;30.80;78.10;;;;;;5027172;28;20440;-70
2023/07/19 10:56:53;;;;;;;3.47;2.37;;;31.10;77.10;;;;;;5027422;28;20484;-66
2023/07/19 10:59:19;;;;;;;6.77;2.50;;;31.10;75.40;;;;;;5027480;28;20842;-66
2023/07/19 11:01:48;;;;;;;7.00;2.50;;;31.00;71.10;;;;;;5026858;28;20473;-66
2023/07/19 11:04:14;;;;;;;12.17;2.40;;;31.40;75.10;;;;;;5026763;28;20470;-66
2023/07/19 11:06:56;;;;;;;52.43;8.23;;;31.60;76.40;;;;;;5027302;28;20449;-67
2023/07/19 11:09:24;;;;;;;23.13;4.17;;;31.80;75.10;;;;;;5026981;28;20441;-67
2023/07/19 11:11:50;;;;;;;7.53;2.70;;;31.70;70.40;;;;;;5027337;28;20422;-67
2023/07/19 11:14:30;;;;;;;9.13;3.57;;;31.70;74.70;;;;;;5027180;28;20800;-67
2023/07/19 11:16:56;;;;;;;6.37;2.70;;;32.30;72.90;;;;;;5027350;28;20427;-67
2023/07/19 11:19:36;;;;;;;8.23;2.60;;;32.70;71.30;;;;;;5027242;28;20985;-67
2023/07/19 11:22:06;;;;;;;3.80;2.57;;;32.50;65.60;;;;;;5027751;28;20792;-67
2023/07/19 11:24:39;;;;;;;8.03;2.80;;;32.20;64.60;;;;;;5027506;28;20870;-66
2023/07/19 11:27:06;;;;;;;6.17;2.50;;;32.40;69.00;;;;;;5027778;28;21090;-67
2023/07/19 11:29:33;;;;;;;5.00;3.27;;;32.30;68.10;;;;;;5031534;28;20442;-67
2023/07/19 11:32:21;;;;;;;11.20;3.03;;;31.50;65.30;;;;;;5031570;28;20430;-67
2023/07/19 11:34:51;;;;;;;5.93;3.20;;;31.00;66.20;;;;;;5031102;28;21358;-67
2023/07/19 11:37:26;;;;;;;8.00;3.17;;;30.70;68.10;;;;;;5031011;28;20419;-67
2023/07/19 11:39:53;;;;;;;12.43;3.10;;;30.90;68.50;;;;;;5030752;28;20471;-67
2023/07/19 11:42:58;;;;;;;10.57;3.40;;;30.90;70.10;;;;;;5030958;28;20418;-67
2023/07/19 11:45:26;;;;;;;3.47;2.90;;;30.90;70.50;;;;;;5030599;28;20565;-67
2023/07/19 11:47:55;;;;;;;5.23;3.03;;;30.80;70.50;;;;;;5030377;28;20784;-67
2023/07/19 11:50:23;;;;;;;9.40;3.30;;;31.00;66.90;;;;;;5030472;28;20473;-67
2023/07/19 11:52:51;;;;;;;7.73;3.27;;;31.10;71.30;;;;;;5030394;28;20455;-67
2023/07/19 11:55:18;;;;;;;6.77;3.70;;;31.50;70.40;;;;;;5030541;28;20445;-67
2023/07/19 11:57:46;;;;;;;5.33;3.33;;;31.50;67.60;;;;;;5030769;28;20458;-67
2023/07/19 12:00:16;;;;;;;6.90;3.23;;;31.60;66.20;;;;;;5030442;28;20480;-67
2023/07/19 12:02:46;;;;;;;6.63;2.97;;;31.50;65.30;;;;;;5030626;28;20518;-66
2023/07/19 12:05:15;;;;;;;7.70;2.70;;;31.60;66.80;;;;;;5031416;28;20505;-67
2023/07/19 12:07:40;;;;;;;6.40;3.80;;;31.70;66.00;;;;;;5031152;28;20422;-66
2023/07/19 12:10:07;;;;;;;6.97;3.23;;;31.60;64.90;;;;;;5031046;28;20791;-67
2023/07/19 12:12:33;;;;;;;10.57;3.63;;;31.80;66.50;;;;;;5031225;28;20192;-67
2023/07/19 12:15:08;;;;;;;5.83;3.43;;;31.70;65.30;;;;;;5029744;28;20423;-67
2023/07/19 12:17:36;;;;;;;10.00;3.83;;;31.90;66.90;;;;;;5030881;28;21131;-67
2023/07/19 12:20:06;;;;;;;3.53;3.00;;;32.00;65.00;;;;;;5030435;28;20972;-67
2023/07/19 12:22:32;;;;;;;7.47;3.07;;;32.30;66.70;;;;;;5030111;28;20442;-67
2023/07/19 12:24:58;;;;;;;4.90;3.20;;;32.60;65.30;;;;;;5030018;28;20480;-66
2023/07/19 12:27:25;;;;;;;4.40;3.17;;;32.70;64.60;;;;;;5029952;28;20423;-68
2023/07/19 12:29:50;;;;;;;6.00;2.80;;;32.10;59.60;;;;;;5029970;28;20204;-65
2023/07/19 12:32:16;;;;;;;4.43;2.60;;;32.00;63.20;;;;;;5029944;28;20536;-67
2023/07/19 12:34:44;;;;;;;10.23;3.17;;;31.90;62.70;;;;;;5029912;28;20266;-67
2023/07/19 12:37:10;;;;;;;5.87;4.20;;;32.00;64.90;;;;;;5029675;28;20731;-68
2023/07/19 12:39:36;;;;;;;5.50;3.40;;;31.50;62.20;;;;;;5029167;28;20449;-67
2023/07/19 12:42:02;;;;;;;6.07;3.10;;;31.30;64.80;;;;;;5029749;28;20183;-66